createdAt,value
2018-03-31T00:14:12.291Z,8.2
2018-03-31T00:30:48.848Z,8.2
2018-03-31T00:47:26.629Z,7.8
2018-03-31T01:04:03.488Z,7.8
2018-03-31T01:20:40.794Z,7.5
2018-03-31T01:37:18.428Z,7.2
2018-03-31T01:53:55.079Z,7.2
2018-03-31T02:10:31.220Z,6.9
2018-03-31T02:27:08.300Z,6.9
2018-03-31T02:43:44.943Z,6.9
2018-03-31T03:00:21.683Z,6.9
2018-03-31T03:16:59.270Z,7.2
2018-03-31T03:33:34.973Z,7.2
2018-03-31T03:50:11.756Z,7.2
2018-03-31T04:06:49.066Z,7.2
2018-03-31T04:23:26.197Z,6.9
2018-03-31T04:40:02.887Z,6.6
2018-03-31T04:56:39.189Z,6.6
2018-03-31T05:13:15.492Z,6.6
2018-03-31T05:29:52.091Z,6.2
2018-03-31T05:46:30.360Z,6.6
2018-03-31T06:03:04.680Z,6.6
2018-03-31T06:19:41.473Z,6.9
2018-03-31T06:36:18.205Z,7.2
2018-03-31T06:52:55.661Z,7.8
2018-03-31T07:09:33.154Z,8.2
2018-03-31T07:26:11.545Z,8.8
2018-03-31T07:42:50.131Z,9.1
2018-03-31T07:59:28.876Z,9.4
2018-03-31T08:12:47.757Z,9.8
2018-03-31T08:29:26.845Z,10.1
2018-03-31T08:46:05.796Z,10.4
2018-03-31T09:02:46.094Z,10.7
2018-03-31T09:16:05.591Z,11.0
2018-03-31T09:49:26.673Z,12.0
2018-03-31T10:06:07.567Z,12.0
2018-03-31T10:16:07.813Z,12.3
2018-03-31T10:32:48.651Z,12.6
2018-03-31T10:49:30.685Z,13.0
2018-03-31T11:06:11.869Z,13.0
2018-03-31T11:22:53.758Z,13.3
2018-03-31T11:32:54.162Z,13.9
2018-03-31T11:49:36.193Z,13.6
2018-03-31T12:06:18.204Z,13.9
2018-03-31T12:23:01.388Z,13.9
2018-03-31T12:39:42.618Z,13.9
2018-03-31T12:56:24.901Z,14.2
2018-03-31T13:13:07.508Z,14.6
2018-03-31T13:29:50.511Z,14.6
2018-03-31T13:46:33.178Z,14.2
2018-03-31T14:03:15.731Z,14.2
2018-03-31T14:19:58.173Z,13.9
2018-03-31T14:36:40.200Z,13.3
2018-03-31T14:53:21.817Z,13.0
2018-03-31T15:10:03.695Z,13.3
2018-03-31T15:20:04.681Z,13.9
2018-03-31T15:36:46.878Z,13.9
2018-03-31T15:50:08.731Z,13.3
2018-03-31T16:06:50.261Z,13.0
2018-03-31T16:23:31.812Z,13.0
2018-03-31T16:40:13.179Z,12.6
2018-03-31T16:53:33.996Z,12.0
2018-03-31T17:00:14.178Z,11.4
2018-03-31T17:03:34.242Z,11.4
2018-03-31T17:16:54.243Z,11.0
2018-03-31T17:26:54.002Z,10.4
2018-03-31T17:43:33.330Z,10.1
2018-03-31T18:00:12.465Z,9.8
2018-03-31T18:16:51.212Z,9.1
2018-03-31T18:33:29.522Z,8.8
2018-03-31T18:50:07.553Z,8.2
2018-03-31T19:06:45.211Z,8.2
2018-03-31T19:23:22.967Z,8.2
2018-03-31T19:40:00.571Z,8.2
2018-03-31T19:56:38.639Z,7.8
2018-03-31T20:13:16.297Z,7.5
2018-03-31T20:29:54.005Z,7.2
2018-03-31T20:46:31.810Z,6.9
2018-03-31T21:03:07.932Z,6.6
2018-03-31T21:19:44.251Z,6.2
2018-03-31T21:36:20.357Z,6.2
2018-03-31T21:52:56.948Z,6.2
2018-03-31T22:09:34.232Z,5.9
2018-03-31T22:26:10.051Z,6.2
2018-03-31T22:42:45.290Z,5.9
2018-03-31T22:59:20.824Z,5.6
2018-03-31T23:32:32.513Z,5.6
2018-03-31T23:49:08.142Z,5.3
